Tihvin, Russia
Current Conditions -  °F | °C
As of 3:30 PM on Friday 31 Oct 2014 (Local Time) from ULLI Reporting Station
Overcast Overcast  
Wind Chill: 37°   Ceiling: 1700
Heat Index: 43°   Visibility: 6mi
Dew Point: 36°   Wind: 11mph
Humidity: 76%   Direction: 300°WNW
Pressure: 30.09"   Gusts: NA
Location:  59.64°N, 33.51°E
Report Text: ULLI 311230Z 30005MPS 9999 OVC017 06/02 Q1019 88090070 NOSIG
Loading
Personal Weather Stations






























Interactive Weather Map
Tropical Storm Tracking
New forecast layout! Learn more

10-Day Weather Forecast

Advertisements
Track Severe Weather on mobile